Time;durP1;ratioP1;P1;durP2;ratioP2;P2;SDS_P1;SDS_P2;PMS_P1;PMS_P2;Temp;Humidity;BMP_temperature;BMP_pressure;BME280_temperature;BME280_humidity;BME280_pressure;Samples;Min_cycle;Max_cycle;Signal;HPM_P1;HPM_P2
2023/02/22 00:00:42;;;;;;;17.20;2.30;;;;;;;;;;110185;1262;22111;-76
2023/02/22 00:03:23;;;;;;;18.40;2.80;;;;;;;;;;110125;1279;22189;-76
2023/02/22 00:05:53;;;;;;;14.70;2.20;;;;;;;;;;110183;1279;22151;-76
2023/02/22 00:08:22;;;;;;;18.20;3.60;;;;;;;;;;110121;1279;22132;-75
2023/02/22 00:10:50;;;;;;;17.90;3.10;;;;;;;;;;110384;1257;22895;-76
2023/02/22 00:13:18;;;;;;;19.30;2.90;;;;;;;;;;110136;1279;22111;-76
2023/02/22 00:15:46;;;;;;;17.30;3.10;;;;;;;;;;110138;1279;22183;-76
2023/02/22 00:18:18;;;;;;;18.90;2.90;;;;;;;;;;110172;1279;22152;-78
2023/02/22 00:20:45;;;;;;;12.50;2.70;;;;;;;;;;110283;1260;22748;-76
2023/02/22 00:23:18;;;;;;;13.90;2.30;;;;;;;;;;110144;1279;22098;-76
2023/02/22 00:25:46;;;;;;;14.90;2.30;;;;;;;;;;110142;1279;22122;-76
2023/02/22 00:28:14;;;;;;;12.10;2.80;;;;;;;;;;110192;1279;22120;-76
2023/02/22 00:30:42;;;;;;;19.30;2.60;;;;;;;;;;110335;1262;22169;-76
2023/02/22 00:33:16;;;;;;;23.10;2.90;;;;;;;;;;110129;1279;22114;-76
2023/02/22 00:35:48;;;;;;;14.70;2.70;;;;;;;;;;110032;1281;22175;-76
2023/02/22 00:38:18;;;;;;;19.90;2.60;;;;;;;;;;110029;1281;22982;-76
2023/02/22 00:40:48;;;;;;;18.10;3.30;;;;;;;;;;110236;1262;22112;-76
2023/02/22 00:43:18;;;;;;;12.30;2.20;;;;;;;;;;110038;1279;22145;-76
2023/02/22 00:45:49;;;;;;;16.50;2.20;;;;;;;;;;110111;1280;22086;-76
2023/02/22 00:48:19;;;;;;;14.30;2.40;;;;;;;;;;110089;1280;22080;-75
2023/02/22 00:50:49;;;;;;;13.60;2.30;;;;;;;;;;110123;1264;22154;-76
2023/02/22 00:53:18;;;;;;;15.80;3.30;;;;;;;;;;109982;1276;22144;-75
2023/02/22 00:55:47;;;;;;;17.50;2.70;;;;;;;;;;110041;1281;22784;-76
2023/02/22 00:58:17;;;;;;;15.90;2.50;;;;;;;;;;110049;1281;22123;-76
2023/02/22 01:00:46;;;;;;;19.70;3.00;;;;;;;;;;110133;1257;22143;-75
2023/02/22 01:03:17;;;;;;;14.40;2.30;;;;;;;;;;110091;1280;22884;-76
2023/02/22 01:05:47;;;;;;;17.10;2.60;;;;;;;;;;110096;1280;22611;-76
2023/02/22 01:08:16;;;;;;;17.70;2.70;;;;;;;;;;110104;1280;22142;-76
2023/02/22 01:10:45;;;;;;;13.30;2.20;;;;;;;;;;110058;1258;22897;-75
2023/02/22 01:13:15;;;;;;;14.80;2.60;;;;;;;;;;110105;1281;22122;-76
2023/02/22 01:15:44;;;;;;;14.70;2.10;;;;;;;;;;110044;1281;23000;-75
2023/02/22 01:18:16;;;;;;;16.20;2.60;;;;;;;;;;110068;1280;22128;-76
2023/02/22 01:20:46;;;;;;;16.10;2.40;;;;;;;;;;110060;1258;22424;-76
2023/02/22 01:23:17;;;;;;;17.00;2.30;;;;;;;;;;110036;1280;22153;-76
2023/02/22 01:25:46;;;;;;;12.40;2.60;;;;;;;;;;110031;1280;22137;-75
2023/02/22 01:28:16;;;;;;;16.90;2.80;;;;;;;;;;110105;1280;22133;-75
2023/02/22 01:30:45;;;;;;;16.20;2.30;;;;;;;;;;110095;1280;22110;-76
2023/02/22 01:33:15;;;;;;;16.10;2.30;;;;;;;;;;110244;1265;22793;-75
2023/02/22 01:42:50;;;;;;;17.10;2.80;;;;;;;;;;103900;1301;544805;-77
2023/02/22 01:45:31;;;;;;;14.50;2.60;;;;;;;;;;106302;1286;24207;-77
2023/02/22 01:48:04;;;;;;;17.00;2.80;;;;;;;;;;106380;1276;25246;-80
2023/02/22 01:50:38;;;;;;;17.10;2.60;;;;;;;;;;106138;1286;22547;-84
2023/02/22 01:53:14;;;;;;;15.10;2.80;;;;;;;;;;106324;1277;22540;-79
2023/02/22 01:56:05;;;;;;;18.60;2.10;;;;;;;;;;102613;1285;4691390;-81
2023/02/22 01:58:52;;;;;;;15.60;2.30;;;;;;;;;;106894;1278;22536;-80
2023/02/22 02:01:25;;;;;;;17.70;2.30;;;;;;;;;;106896;1278;23915;-77
2023/02/22 02:03:56;;;;;;;14.20;2.40;;;;;;;;;;107015;1276;22530;-81
2023/02/22 02:06:53;;;;;;;15.90;2.40;;;;;;;;;;106939;1276;22533;-83
2023/02/22 02:09:37;;;;;;;17.50;3.30;;;;;;;;;;106876;1276;24187;-81
2023/02/22 02:12:51;;;;;;;15.80;2.80;;;;;;;;;;106982;1267;25350;-81
2023/02/22 02:15:40;;;;;;;17.50;2.50;;;;;;;;;;106874;1277;22655;-79
2023/02/22 02:18:39;;;;;;;16.70;3.20;;;;;;;;;;106766;1277;22530;-78
2023/02/22 02:21:43;;;;;;;16.60;3.20;;;;;;;;;;106824;1277;22535;-76
2023/02/22 02:24:43;;;;;;;22.50;4.40;;;;;;;;;;106917;1269;25297;-80
2023/02/22 02:27:13;;;;;;;18.00;4.30;;;;;;;;;;106985;1276;22606;-80
2023/02/22 02:30:03;;;;;;;22.20;5.40;;;;;;;;;;106935;1276;24213;-81
2023/02/22 02:32:49;;;;;;;18.30;3.30;;;;;;;;;;106971;1254;22546;-82
2023/02/22 02:35:53;;;;;;;16.00;2.90;;;;;;;;;;106914;1275;22559;-77
2023/02/22 02:38:28;;;;;;;13.70;2.60;;;;;;;;;;106942;1275;24218;-76
2023/02/22 02:41:18;;;;;;;14.40;2.90;;;;;;;;;;106959;1275;24218;-78
2023/02/22 02:44:07;;;;;;;16.40;2.60;;;;;;;;;;107007;1260;24341;-83
2023/02/22 02:46:36;;;;;;;19.00;3.30;;;;;;;;;;107130;1274;22630;-82
2023/02/22 02:49:47;;;;;;;16.00;2.70;;;;;;;;;;107135;1274;25243;-79
2023/02/22 02:52:33;;;;;;;12.30;2.30;;;;;;;;;;107084;1274;22538;-81
2023/02/22 02:55:23;;;;;;;17.70;2.60;;;;;;;;;;106931;1267;24231;-82
2023/02/22 02:58:27;;;;;;;12.90;1.70;;;;;;;;;;107012;1275;22485;-81
2023/02/22 03:01:28;;;;;;;11.90;2.60;;;;;;;;;;106449;1281;24301;-84
2023/02/22 03:04:06;;;;;;;15.30;3.00;;;;;;;;;;106344;1265;22530;-83
2023/02/22 03:06:51;;;;;;;15.80;3.30;;;;;;;;;;106335;1281;22713;-79
2023/02/22 03:09:18;;;;;;;13.90;2.90;;;;;;;;;;106437;1279;22541;-77
2023/02/22 03:12:23;;;;;;;15.40;3.20;;;;;;;;;;106348;1281;25503;-75
2023/02/22 03:15:37;;;;;;;;;;;;;;;;;;;;;
2023/02/22 03:18:27;;;;;;;11.60;2.10;;;;;;;;;;106531;1281;23737;-77
2023/02/22 03:21:17;;;;;;;11.50;2.10;;;;;;;;;;106539;1281;22540;-76
2023/02/22 03:24:11;;;;;;;20.80;2.80;;;;;;;;;;106443;1281;22667;-77
2023/02/22 03:27:09;;;;;;;15.60;2.30;;;;;;;;;;106493;1281;24707;-81
2023/02/22 03:29:40;;;;;;;14.60;2.80;;;;;;;;;;106449;1281;24253;-83
2023/02/22 03:32:23;;;;;;;;;;;;;;;;;;;;;
2023/02/22 03:35:09;;;;;;;15.20;2.30;;;;;;;;;;106486;1266;22543;-80
2023/02/22 03:38:07;;;;;;;11.30;1.70;;;;;;;;;;106647;1271;22549;-82
2023/02/22 03:40:53;;;;;;;12.60;2.20;;;;;;;;;;106985;1275;24365;-80
2023/02/22 03:43:50;;;;;;;11.00;1.60;;;;;;;;;;106897;1275;25363;-78
2023/02/22 03:46:33;;;;;;;10.30;1.40;;;;;;;;;;106748;1270;22537;-79
2023/02/22 03:49:19;;;;;;;12.60;1.80;;;;;;;;;;106868;1278;25380;-80
2023/02/22 03:52:11;;;;;;;13.10;1.70;;;;;;;;;;106864;1277;26487;-76
2023/02/22 03:54:52;;;;;;;9.10;1.50;;;;;;;;;;106958;1253;25243;-76
2023/02/22 03:57:48;;;;;;;11.90;1.80;;;;;;;;;;106892;1275;24216;-76
2023/02/22 04:00:19;;;;;;;8.80;1.50;;;;;;;;;;107005;1275;22533;-78
2023/02/22 04:02:52;;;;;;;8.30;1.60;;;;;;;;;;106977;1275;22526;-81
2023/02/22 04:05:39;;;;;;;9.60;1.90;;;;;;;;;;106946;1276;22625;-76
2023/02/22 04:08:09;;;;;;;9.70;1.70;;;;;;;;;;106916;1276;22529;-79
2023/02/22 04:10:39;;;;;;;10.90;1.60;;;;;;;;;;106891;1276;22548;-77
2023/02/22 04:13:13;;;;;;;9.40;2.00;;;;;;;;;;106928;1276;23919;-79
2023/02/22 04:15:44;;;;;;;8.30;1.50;;;;;;;;;;106997;1266;23225;-77
2023/02/22 04:18:14;;;;;;;10.90;1.50;;;;;;;;;;106885;1275;22596;-79
2023/02/22 04:20:47;;;;;;;8.30;1.60;;;;;;;;;;107064;1275;22490;-81
2023/02/22 04:23:42;;;;;;;7.80;1.60;;;;;;;;;;107098;1264;24186;-82
2023/02/22 04:26:15;;;;;;;11.50;1.90;;;;;;;;;;106855;1278;23427;-80
2023/02/22 04:28:57;;;;;;;10.70;1.70;;;;;;;;;;106857;1277;22531;-78
2023/02/22 04:31:47;;;;;;;11.20;1.90;;;;;;;;;;106854;1278;22543;-83
2023/02/22 04:34:27;;;;;;;6.20;1.40;;;;;;;;;;106837;1277;25503;-80
2023/02/22 04:37:34;;;;;;;10.00;1.40;;;;;;;;;;106964;1260;22556;-77
2023/02/22 04:40:15;;;;;;;10.80;2.00;;;;;;;;;;106930;1275;22531;-76
2023/02/22 04:43:13;;;;;;;10.40;1.90;;;;;;;;;;107047;1275;24187;-77
2023/02/22 04:45:41;;;;;;;9.20;1.90;;;;;;;;;;106875;1255;23888;-75
2023/02/22 04:48:18;;;;;;;8.70;1.70;;;;;;;;;;106654;1276;22567;-75
2023/02/22 04:51:13;;;;;;;9.30;1.60;;;;;;;;;;106621;1276;22670;-80
2023/02/22 04:54:04;;;;;;;;;;;;;;;;;;;;;
2023/02/22 04:56:45;;;;;;;13.60;2.20;;;;;;;;;;106983;1257;23877;-80
2023/02/22 04:59:14;;;;;;;8.80;1.70;;;;;;;;;;106950;1275;24243;-82
2023/02/22 05:02:05;;;;;;;10.10;2.10;;;;;;;;;;106894;1275;24224;-78
2023/02/22 05:04:52;;;;;;;12.10;2.50;;;;;;;;;;107044;1275;25285;-80
2023/02/22 05:07:49;;;;;;;13.70;2.30;;;;;;;;;;106893;1260;24196;-79
2023/02/22 05:10:34;;;;;;;;;;;;;;;;;;;;;
2023/02/22 05:13:11;;;;;;;16.80;3.20;;;;;;;;;;106962;1276;24356;-80
2023/02/22 05:16:03;;;;;;;16.10;3.80;;;;;;;;;;106921;1276;22547;-76
2023/02/22 05:18:53;;;;;;;15.80;4.40;;;;;;;;;;106851;1259;22538;-79
2023/02/22 05:21:43;;;;;;;;;;;;;;;;;;;;;
2023/02/22 05:24:47;;;;;;;15.70;3.50;;;;;;;;;;106948;1275;24350;-78
2023/02/22 05:27:17;;;;;;;17.00;3.90;;;;;;;;;;106937;1261;22713;-78
2023/02/22 05:30:08;;;;;;;;;;;;;;;;;;;;;
2023/02/22 05:32:37;;;;;;;14.40;3.60;;;;;;;;;;106928;1276;22537;-82
2023/02/22 05:35:07;;;;;;;16.10;3.00;;;;;;;;;;106878;1276;25235;-82
2023/02/22 05:37:43;;;;;;;14.20;3.40;;;;;;;;;;106936;1275;24187;-82
2023/02/22 05:40:31;;;;;;;16.40;4.70;;;;;;;;;;106873;1275;24193;-82
2023/02/22 05:43:01;;;;;;;22.70;5.80;;;;;;;;;;107086;1275;24244;-77
2023/02/22 05:45:35;;;;;;;21.40;6.10;;;;;;;;;;106913;1275;22529;-81
2023/02/22 05:48:28;;;;;;;20.60;6.70;;;;;;;;;;106877;1260;22548;-75
2023/02/22 05:50:57;;;;;;;24.20;7.10;;;;;;;;;;106874;1276;25309;-78
2023/02/22 05:53:36;;;;;;;23.80;6.00;;;;;;;;;;106914;1276;22557;-78
2023/02/22 05:56:13;;;;;;;;;;;;;;;;;;;;;
2023/02/22 05:59:11;;;;;;;;;;;;;;;;;;;;;
2023/02/22 06:02:01;;;;;;;;;;;;;;;;;;;;;
2023/02/22 06:04:48;;;;;;;24.00;7.50;;;;;;;;;;106929;1275;24312;-78
2023/02/22 06:08:24;;;;;;;21.60;7.60;;;;;;;;;;106928;1255;26484;-76
2023/02/22 06:10:37;;;;;;;26.70;9.20;;;;;;;;;;106874;1276;22506;-81
2023/02/22 06:13:15;;;;;;;23.70;8.20;;;;;;;;;;106893;1276;22554;-79
2023/02/22 06:16:08;;;;;;;17.30;5.50;;;;;;;;;;106868;1276;22561;-80
2023/02/22 06:18:59;;;;;;;22.00;6.60;;;;;;;;;;106859;1257;25346;-80
2023/02/22 06:22:29;;;;;;;14.60;5.10;;;;;;;;;;106961;1275;22657;-79
2023/02/22 06:24:52;;;;;;;20.80;4.60;;;;;;;;;;107060;1275;25233;-79
2023/02/22 06:27:35;;;;;;;20.70;4.30;;;;;;;;;;106906;1275;24260;-75
2023/02/22 06:30:05;;;;;;;15.50;4.10;;;;;;;;;;106880;1261;22540;-79
2023/02/22 06:32:32;;;;;;;17.60;5.90;;;;;;;;;;106914;1276;25422;-80
2023/02/22 06:35:04;;;;;;;23.90;8.40;;;;;;;;;;106943;1276;22777;-81
2023/02/22 06:37:42;;;;;;;22.50;8.20;;;;;;;;;;106903;1276;22514;-80
2023/02/22 06:40:12;;;;;;;27.30;7.90;;;;;;;;;;106914;1265;22533;-77
2023/02/22 06:42:46;;;;;;;19.80;6.60;;;;;;;;;;106952;1267;22527;-77
2023/02/22 06:45:13;;;;;;;20.30;7.30;;;;;;;;;;106817;1275;25336;-78
2023/02/22 06:47:40;;;;;;;21.90;7.40;;;;;;;;;;106909;1275;25298;-76
2023/02/22 06:50:19;;;;;;;26.60;7.50;;;;;;;;;;106877;1261;25287;-78
2023/02/22 06:52:46;;;;;;;22.30;6.90;;;;;;;;;;106895;1276;22596;-75
2023/02/22 06:55:32;;;;;;;22.00;6.70;;;;;;;;;;106942;1276;22764;-79
2023/02/22 06:58:02;;;;;;;22.00;7.30;;;;;;;;;;106871;1275;25334;-83
2023/02/22 07:00:30;;;;;;;22.90;7.00;;;;;;;;;;107141;1274;22538;-80
2023/02/22 07:03:07;;;;;;;21.00;7.40;;;;;;;;;;107130;1274;22568;-80
2023/02/22 07:05:39;;;;;;;26.90;8.90;;;;;;;;;;107080;1274;23006;-77
2023/02/22 07:08:11;;;;;;;22.00;7.60;;;;;;;;;;106996;1274;22601;-74
2023/02/22 07:10:40;;;;;;;27.80;7.80;;;;;;;;;;106892;1258;22525;-75
2023/02/22 07:13:09;;;;;;;22.20;6.80;;;;;;;;;;107071;1269;24240;-76
2023/02/22 07:15:42;;;;;;;26.00;7.50;;;;;;;;;;107087;1270;25387;-82
2023/02/22 07:18:28;;;;;;;25.90;6.10;;;;;;;;;;107357;1275;22786;-82
2023/02/22 07:21:10;;;;;;;25.20;6.80;;;;;;;;;;107389;1258;22536;-82
2023/02/22 07:24:12;;;;;;;35.90;8.00;;;;;;;;;;106939;1275;22543;-81
2023/02/22 07:26:54;;;;;;;28.50;7.80;;;;;;;;;;107074;1269;23111;-82
2023/02/22 07:29:26;;;;;;;32.80;7.70;;;;;;;;;;107123;1252;22557;-79
2023/02/22 07:31:53;;;;;;;32.20;8.90;;;;;;;;;;107104;1275;22933;-78
2023/02/22 07:34:20;;;;;;;37.60;9.50;;;;;;;;;;107091;1275;25411;-75
2023/02/22 07:36:58;;;;;;;38.20;10.10;;;;;;;;;;106902;1275;22551;-77
2023/02/22 07:39:27;;;;;;;37.80;10.00;;;;;;;;;;106890;1251;24166;-76
2023/02/22 07:42:04;;;;;;;30.80;8.70;;;;;;;;;;106984;1267;22539;-76
2023/02/22 07:44:31;;;;;;;28.40;7.80;;;;;;;;;;106939;1273;25229;-78
2023/02/22 07:47:04;;;;;;;32.10;9.90;;;;;;;;;;106929;1274;24193;-76
2023/02/22 07:49:34;;;;;;;28.30;9.30;;;;;;;;;;106879;1251;22534;-76
2023/02/22 07:52:05;;;;;;;34.50;10.00;;;;;;;;;;106942;1275;22529;-75
2023/02/22 07:54:32;;;;;;;31.30;9.90;;;;;;;;;;107077;1251;22490;-74
2023/02/22 07:56:59;;;;;;;31.10;8.60;;;;;;;;;;107103;1275;24187;-81
2023/02/22 07:59:26;;;;;;;27.00;8.20;;;;;;;;;;106887;1275;25243;-78
2023/02/22 08:01:53;;;;;;;26.60;7.30;;;;;;;;;;107110;1275;23820;-76
2023/02/22 08:04:22;;;;;;;26.30;6.30;;;;;;;;;;107083;1275;22546;-83
2023/02/22 08:06:52;;;;;;;31.80;9.20;;;;;;;;;;106900;1275;22579;-75
2023/02/22 08:09:19;;;;;;;29.00;8.90;;;;;;;;;;107026;1275;22530;-77
2023/02/22 08:11:46;;;;;;;26.40;9.00;;;;;;;;;;107133;1254;22543;-82
2023/02/22 08:14:14;;;;;;;25.50;9.20;;;;;;;;;;106959;1274;25343;-78
2023/02/22 08:16:41;;;;;;;28.80;7.70;;;;;;;;;;107149;1263;24199;-81
2023/02/22 08:19:08;;;;;;;19.70;7.00;;;;;;;;;;106987;1274;23799;-77
2023/02/22 08:21:35;;;;;;;16.70;5.70;;;;;;;;;;107113;1257;24326;-76
2023/02/22 08:24:02;;;;;;;21.20;6.60;;;;;;;;;;107070;1275;24231;-75
2023/02/22 08:26:29;;;;;;;19.00;6.60;;;;;;;;;;107091;1275;22546;-77
2023/02/22 08:28:56;;;;;;;19.60;5.20;;;;;;;;;;107106;1275;22993;-81
2023/02/22 08:31:23;;;;;;;19.00;5.20;;;;;;;;;;107092;1257;22540;-75
2023/02/22 08:33:50;;;;;;;15.80;3.90;;;;;;;;;;106998;1270;22533;-75
2023/02/22 08:36:17;;;;;;;14.00;2.90;;;;;;;;;;106846;1273;22545;-76
2023/02/22 08:38:44;;;;;;;13.10;2.70;;;;;;;;;;106874;1274;22657;-79
2023/02/22 08:41:11;;;;;;;16.20;2.80;;;;;;;;;;106935;1258;22533;-82
2023/02/22 08:43:38;;;;;;;16.60;2.60;;;;;;;;;;106873;1275;22493;-81
2023/02/22 08:46:12;;;;;;;13.80;1.70;;;;;;;;;;107080;1275;22754;-81
2023/02/22 08:48:48;;;;;;;14.00;2.00;;;;;;;;;;106938;1275;25300;-75
2023/02/22 08:51:27;;;;;;;16.00;2.20;;;;;;;;;;107139;1273;22534;-81
2023/02/22 08:53:54;;;;;;;17.60;2.50;;;;;;;;;;107109;1274;24193;-77
2023/02/22 08:56:22;;;;;;;16.70;3.20;;;;;;;;;;107131;1274;22571;-77
2023/02/22 08:58:49;;;;;;;17.50;2.40;;;;;;;;;;107112;1274;24179;-81
2023/02/22 09:01:21;;;;;;;12.50;2.10;;;;;;;;;;107129;1254;24244;-77
2023/02/22 09:03:50;;;;;;;14.90;2.60;;;;;;;;;;107106;1275;22536;-76
2023/02/22 09:06:17;;;;;;;15.70;2.80;;;;;;;;;;107092;1275;22641;-76
2023/02/22 09:08:53;;;;;;;15.80;2.90;;;;;;;;;;107279;1275;24291;-75
2023/02/22 09:11:20;;;;;;;20.30;2.90;;;;;;;;;;107031;1251;22537;-77
2023/02/22 09:13:47;;;;;;;20.30;3.50;;;;;;;;;;107146;1272;24263;-77
2023/02/22 09:16:17;;;;;;;14.80;3.20;;;;;;;;;;107202;1263;25391;-77
2023/02/22 09:18:44;;;;;;;15.40;2.80;;;;;;;;;;107154;1267;22544;-76
2023/02/22 09:21:12;;;;;;;19.90;3.00;;;;;;;;;;106981;1269;22530;-74
2023/02/22 09:23:40;;;;;;;15.70;2.20;;;;;;;;;;106933;1261;22543;-78
2023/02/22 09:26:08;;;;;;;15.90;2.40;;;;;;;;;;107037;1275;25363;-75
2023/02/22 09:28:35;;;;;;;18.70;4.20;;;;;;;;;;106924;1273;25396;-79
2023/02/22 09:31:06;;;;;;;15.60;3.40;;;;;;;;;;107089;1267;22533;-76
2023/02/22 09:33:33;;;;;;;20.00;3.90;;;;;;;;;;107226;1256;25243;-78
2023/02/22 09:36:01;;;;;;;16.30;3.10;;;;;;;;;;106939;1267;24995;-78
2023/02/22 09:38:31;;;;;;;21.20;2.80;;;;;;;;;;107002;1272;23869;-77
2023/02/22 09:41:31;;;;;;;17.10;2.80;;;;;;;;;;107255;1270;22526;-80
2023/02/22 09:44:17;;;;;;;17.50;3.10;;;;;;;;;;106933;1257;22539;-80
2023/02/22 09:46:44;;;;;;;18.10;2.90;;;;;;;;;;107038;1253;23125;-77
2023/02/22 09:49:18;;;;;;;15.30;3.00;;;;;;;;;;107019;1272;22547;-76
2023/02/22 09:52:00;;;;;;;15.50;2.60;;;;;;;;;;107139;1269;22533;-76
2023/02/22 09:54:33;;;;;;;16.40;2.40;;;;;;;;;;106955;1259;22526;-80
2023/02/22 09:57:03;;;;;;;14.20;2.30;;;;;;;;;;107133;1274;22537;-78
2023/02/22 09:59:39;;;;;;;16.50;2.40;;;;;;;;;;106982;1267;25464;-75
2023/02/22 10:02:25;;;;;;;16.00;2.50;;;;;;;;;;106864;1267;22525;-76
2023/02/22 10:04:58;;;;;;;14.90;2.90;;;;;;;;;;106918;1257;22543;-75
2023/02/22 10:07:35;;;;;;;15.50;2.90;;;;;;;;;;106994;1273;23924;-77
2023/02/22 10:10:06;;;;;;;14.70;2.60;;;;;;;;;;106889;1269;26735;-77
2023/02/22 10:12:39;;;;;;;21.80;3.50;;;;;;;;;;107003;1268;24466;-75
2023/02/22 10:15:14;;;;;;;19.00;3.60;;;;;;;;;;106929;1259;22528;-77
2023/02/22 10:17:50;;;;;;;20.30;3.60;;;;;;;;;;107001;1267;25519;-77
2023/02/22 10:20:21;;;;;;;17.90;3.30;;;;;;;;;;107033;1253;22532;-77
2023/02/22 10:22:55;;;;;;;15.50;3.10;;;;;;;;;;107244;1272;23454;-76
2023/02/22 10:25:23;;;;;;;18.90;3.60;;;;;;;;;;106888;1258;25189;-76
2023/02/22 10:27:50;;;;;;;16.60;3.30;;;;;;;;;;106881;1266;22529;-79
2023/02/22 10:30:23;;;;;;;17.20;3.10;;;;;;;;;;106940;1267;22962;-81
2023/02/22 10:33:02;;;;;;;19.80;7.50;;;;;;;;;;110569;1275;22438;-75
2023/02/22 10:35:33;;;;;;;21.10;3.50;;;;;;;;;;110670;1250;22316;-76
2023/02/22 10:38:13;;;;;;;17.10;3.10;;;;;;;;;;110645;1274;22091;-75
2023/02/22 10:40:42;;;;;;;16.50;2.80;;;;;;;;;;110668;1274;22227;-76
2023/02/22 10:43:10;;;;;;;15.30;2.80;;;;;;;;;;110584;1274;22122;-77
2023/02/22 10:45:37;;;;;;;18.90;3.50;;;;;;;;;;110574;1253;22115;-74
2023/02/22 10:48:10;;;;;;;20.20;3.60;;;;;;;;;;110454;1275;22132;-74
2023/02/22 10:50:39;;;;;;;19.80;3.60;;;;;;;;;;110625;1275;22212;-74
2023/02/22 10:53:07;;;;;;;21.90;4.30;;;;;;;;;;110588;1275;22124;-74
2023/02/22 10:55:34;;;;;;;17.40;4.10;;;;;;;;;;110902;1256;22145;-76
2023/02/22 10:58:03;;;;;;;17.10;3.30;;;;;;;;;;110602;1271;22274;-74
2023/02/22 11:00:35;;;;;;;14.70;3.40;;;;;;;;;;110632;1274;22099;-74
2023/02/22 11:03:04;;;;;;;18.10;3.10;;;;;;;;;;110628;1274;22160;-75
2023/02/22 11:05:38;;;;;;;19.90;3.50;;;;;;;;;;110882;1254;22119;-75
2023/02/22 11:08:17;;;;;;;21.00;3.80;;;;;;;;;;110563;1275;22860;-75
2023/02/22 11:10:44;;;;;;;19.30;4.00;;;;;;;;;;110566;1275;22192;-75
2023/02/22 11:13:22;;;;;;;20.50;4.00;;;;;;;;;;110567;1275;23050;-74
2023/02/22 11:15:57;;;;;;;18.60;4.20;;;;;;;;;;110715;1255;22115;-75
2023/02/22 11:18:25;;;;;;;19.10;3.70;;;;;;;;;;110646;1272;22303;-75
2023/02/22 11:21:06;;;;;;;22.60;5.90;;;;;;;;;;110645;1266;22134;-75
2023/02/22 11:23:35;;;;;;;19.00;4.80;;;;;;;;;;110649;1274;22135;-75
2023/02/22 11:26:09;;;;;;;19.60;5.00;;;;;;;;;;110968;1253;22226;-75
2023/02/22 11:28:47;;;;;;;17.60;4.20;;;;;;;;;;110574;1275;22206;-75
2023/02/22 11:31:17;;;;;;;19.10;3.70;;;;;;;;;;110532;1275;22320;-77
2023/02/22 11:33:57;;;;;;;17.90;4.10;;;;;;;;;;110584;1275;22277;-75
2023/02/22 11:36:40;;;;;;;17.10;4.10;;;;;;;;;;110876;1253;22155;-75
2023/02/22 11:39:23;;;;;;;19.70;4.40;;;;;;;;;;110619;1275;22913;-76
2023/02/22 11:41:56;;;;;;;24.80;6.80;;;;;;;;;;110604;1275;21770;-81
2023/02/22 11:44:24;;;;;;;22.80;5.40;;;;;;;;;;110612;1275;22117;-79
2023/02/22 11:46:55;;;;;;;22.00;6.10;;;;;;;;;;110439;1259;22221;-80
2023/02/22 11:49:32;;;;;;;31.70;10.60;;;;;;;;;;110622;1276;22128;-80
2023/02/22 11:52:15;;;;;;;30.50;18.40;;;;;;;;;;110627;1276;22916;-80
2023/02/22 11:54:48;;;;;;;21.50;4.70;;;;;;;;;;110601;1265;22166;-79
2023/02/22 11:57:20;;;;;;;17.90;3.80;;;;;;;;;;110975;1256;22491;-78
2023/02/22 11:59:50;;;;;;;20.90;5.10;;;;;;;;;;110601;1275;22018;-78
2023/02/22 12:02:32;;;;;;;18.90;4.20;;;;;;;;;;110598;1275;22401;-79
2023/02/22 12:05:28;;;;;;;20.20;5.10;;;;;;;;;;110586;1275;22392;-82
2023/02/22 12:08:21;;;;;;;42.60;20.90;;;;;;;;;;110805;1253;22164;-81
2023/02/22 12:11:12;;;;;;;17.10;3.40;;;;;;;;;;110508;1275;22237;-77
2023/02/22 12:13:39;;;;;;;18.50;4.90;;;;;;;;;;110456;1276;22113;-76
2023/02/22 12:16:06;;;;;;;18.00;3.30;;;;;;;;;;110588;1252;22247;-76
2023/02/22 12:18:52;;;;;;;14.70;3.90;;;;;;;;;;110506;1275;22256;-76
2023/02/22 12:21:21;;;;;;;19.70;4.10;;;;;;;;;;110641;1275;22152;-76
2023/02/22 12:23:54;;;;;;;16.70;4.30;;;;;;;;;;110502;1275;23194;-77
2023/02/22 12:26:33;;;;;;;34.50;15.30;;;;;;;;;;110542;1253;22128;-76
2023/02/22 12:29:00;;;;;;;19.80;4.70;;;;;;;;;;110625;1275;22788;-76
2023/02/22 12:31:32;;;;;;;21.70;4.60;;;;;;;;;;110420;1276;22869;-77
2023/02/22 12:34:18;;;;;;;39.90;21.50;;;;;;;;;;110475;1269;22161;-76
2023/02/22 12:36:50;;;;;;;27.70;8.20;;;;;;;;;;110589;1254;22167;-76
2023/02/22 12:39:24;;;;;;;29.40;13.10;;;;;;;;;;110511;1275;22153;-78
2023/02/22 12:41:56;;;;;;;78.60;41.80;;;;;;;;;;110611;1275;22162;-76
2023/02/22 12:44:26;;;;;;;24.40;7.70;;;;;;;;;;110621;1275;22115;-76
2023/02/22 12:46:55;;;;;;;18.40;4.60;;;;;;;;;;110472;1256;22151;-76
2023/02/22 12:49:25;;;;;;;18.80;3.60;;;;;;;;;;110467;1276;22873;-77
2023/02/22 12:51:59;;;;;;;30.80;11.30;;;;;;;;;;110601;1270;22156;-76
2023/02/22 12:54:36;;;;;;;21.30;4.80;;;;;;;;;;110485;1276;22126;-77
2023/02/22 12:57:24;;;;;;;22.20;7.10;;;;;;;;;;110615;1253;22174;-76
2023/02/22 12:59:54;;;;;;;17.00;3.10;;;;;;;;;;110472;1275;22843;-77
2023/02/22 13:02:29;;;;;;;20.10;5.00;;;;;;;;;;110585;1275;22125;-76
2023/02/22 13:04:56;;;;;;;18.40;4.00;;;;;;;;;;110572;1275;22223;-76
2023/02/22 13:07:38;;;;;;;23.40;4.40;;;;;;;;;;110613;1253;22137;-76
2023/02/22 13:10:11;;;;;;;19.30;3.70;;;;;;;;;;110274;1276;22252;-76
2023/02/22 13:13:05;;;;;;;20.50;4.00;;;;;;;;;;110608;1262;22151;-76
2023/02/22 13:15:32;;;;;;;15.70;3.40;;;;;;;;;;109988;1283;22069;-76
2023/02/22 13:18:01;;;;;;;17.10;3.00;;;;;;;;;;110194;1262;22164;-76
2023/02/22 13:20:54;;;;;;;17.90;3.30;;;;;;;;;;110034;1281;22349;-76
2023/02/22 13:23:30;;;;;;;19.00;3.50;;;;;;;;;;110068;1281;22173;-76
2023/02/22 13:26:00;;;;;;;20.30;3.20;;;;;;;;;;110032;1281;22154;-76
2023/02/22 13:28:27;;;;;;;20.40;3.90;;;;;;;;;;110149;1262;22172;-76
2023/02/22 13:31:00;;;;;;;20.00;3.50;;;;;;;;;;110043;1282;22840;-76
2023/02/22 13:33:33;;;;;;;21.40;4.30;;;;;;;;;;110040;1282;22197;-76
2023/02/22 13:36:00;;;;;;;20.40;4.40;;;;;;;;;;109914;1284;22149;-78
2023/02/22 13:38:27;;;;;;;31.00;10.60;;;;;;;;;;110118;1264;22540;-76
2023/02/22 13:41:02;;;;;;;34.60;10.60;;;;;;;;;;110015;1283;22931;-76
2023/02/22 13:43:48;;;;;;;25.10;5.00;;;;;;;;;;109904;1283;22876;-76
2023/02/22 13:46:23;;;;;;;17.90;5.20;;;;;;;;;;110040;1283;22183;-76
2023/02/22 13:49:08;;;;;;;28.20;7.60;;;;;;;;;;110097;1262;22860;-76
2023/02/22 13:51:35;;;;;;;23.30;4.50;;;;;;;;;;110010;1278;22140;-76
2023/02/22 13:54:05;;;;;;;22.80;4.00;;;;;;;;;;110230;1279;22112;-76
2023/02/22 13:56:31;;;;;;;32.70;4.30;;;;;;;;;;108648;1278;2229110;-76
2023/02/22 13:59:00;;;;;;;19.10;3.80;;;;;;;;;;110458;1259;22120;-76
2023/02/22 14:01:42;;;;;;;22.90;4.20;;;;;;;;;;110425;1276;22121;-76
2023/02/22 14:04:21;;;;;;;21.20;3.90;;;;;;;;;;110382;1275;22181;-76
2023/02/22 14:06:48;;;;;;;22.30;3.60;;;;;;;;;;110498;1276;22105;-76
2023/02/22 14:09:18;;;;;;;21.50;3.80;;;;;;;;;;110532;1256;22000;-75
2023/02/22 14:11:46;;;;;;;22.80;4.20;;;;;;;;;;110191;1278;23017;-76
2023/02/22 14:14:16;;;;;;;17.30;3.70;;;;;;;;;;110429;1277;22174;-76
2023/02/22 14:16:43;;;;;;;18.30;4.00;;;;;;;;;;110349;1278;22087;-76
2023/02/22 14:19:13;;;;;;;27.10;3.90;;;;;;;;;;110608;1257;22146;-76
2023/02/22 14:22:02;;;;;;;19.00;3.60;;;;;;;;;;110436;1277;22892;-76
2023/02/22 14:24:41;;;;;;;20.40;3.30;;;;;;;;;;110427;1277;22588;-76
2023/02/22 14:27:08;;;;;;;14.20;2.80;;;;;;;;;;110422;1277;22757;-75
2023/02/22 14:29:35;;;;;;;19.00;3.80;;;;;;;;;;110569;1259;22232;-75
2023/02/22 14:32:05;;;;;;;18.90;3.60;;;;;;;;;;110430;1278;22752;-76
2023/02/22 14:34:50;;;;;;;19.90;3.60;;;;;;;;;;110390;1278;22176;-76
2023/02/22 14:37:20;;;;;;;20.00;3.40;;;;;;;;;;110364;1278;22137;-75
2023/02/22 14:39:52;;;;;;;16.90;3.60;;;;;;;;;;110526;1259;22194;-76
2023/02/22 14:42:24;;;;;;;18.80;4.10;;;;;;;;;;110436;1277;22746;-76
2023/02/22 14:45:03;;;;;;;25.20;4.90;;;;;;;;;;110244;1277;22922;-76
2023/02/22 14:47:38;;;;;;;20.90;4.40;;;;;;;;;;110463;1277;22924;-76
2023/02/22 14:50:24;;;;;;;21.70;4.20;;;;;;;;;;110563;1260;22228;-76
2023/02/22 14:53:00;;;;;;;21.90;4.40;;;;;;;;;;110374;1278;22120;-75
2023/02/22 14:55:30;;;;;;;26.50;4.80;;;;;;;;;;110265;1278;22827;-76
2023/02/22 14:58:17;;;;;;;21.70;4.10;;;;;;;;;;110344;1278;22855;-76
2023/02/22 15:00:46;;;;;;;20.50;4.20;;;;;;;;;;110709;1258;22154;-75
2023/02/22 15:03:39;;;;;;;22.00;4.60;;;;;;;;;;110373;1277;22323;-76
2023/02/22 15:06:19;;;;;;;21.10;4.70;;;;;;;;;;110341;1277;22155;-77
2023/02/22 15:08:47;;;;;;;21.40;4.80;;;;;;;;;;110361;1277;22862;-76
2023/02/22 15:11:20;;;;;;;26.10;4.50;;;;;;;;;;110699;1259;22207;-76
2023/02/22 15:13:51;;;;;;;18.00;3.80;;;;;;;;;;110339;1278;22091;-76
2023/02/22 15:16:18;;;;;;;19.40;3.60;;;;;;;;;;110160;1278;22637;-76
2023/02/22 15:18:51;;;;;;;20.70;4.30;;;;;;;;;;110341;1278;22160;-75
2023/02/22 15:21:20;;;;;;;19.70;3.80;;;;;;;;;;110462;1259;22859;-76
2023/02/22 15:23:49;;;;;;;19.30;4.00;;;;;;;;;;110375;1277;22981;-76
2023/02/22 15:26:16;;;;;;;12.90;3.10;;;;;;;;;;110345;1277;22928;-76